Time;durP1;ratioP1;P1;durP2;ratioP2;P2;SDS_P1;SDS_P2;PMS_P1;PMS_P2;Temp;Humidity;BMP_temperature;BMP_pressure;BME280_temperature;BME280_humidity;BME280_pressure;Samples;Min_cycle;Max_cycle;Signal;HPM_P1;HPM_P2
2024/02/12 00:00:59;;;;;;;1.00;0.40;;;6.90;78.60;;;;;;4976501;28;20014;-76
2024/02/12 00:03:25;;;;;;;0.63;0.30;;;6.90;78.30;;;;;;4976455;28;20027;-72
2024/02/12 00:05:51;;;;;;;0.20;0.10;;;6.90;78.90;;;;;;4976548;28;20050;-74
2024/02/12 00:08:17;;;;;;;0.50;0.20;;;6.80;78.90;;;;;;4976270;28;20027;-75
2024/02/12 00:10:42;;;;;;;0.20;0.20;;;6.70;78.60;;;;;;4976339;28;20058;-76
2024/02/12 00:13:08;;;;;;;0.73;0.30;;;6.60;80.20;;;;;;4976540;28;20023;-74
2024/02/12 00:15:34;;;;;;;1.02;0.40;;;6.70;80.30;;;;;;4976063;28;20468;-73
2024/02/12 00:17:59;;;;;;;0.63;0.40;;;6.70;80.50;;;;;;4976155;28;20034;-73
2024/02/12 00:20:29;;;;;;;0.82;0.28;;;6.70;80.60;;;;;;4976030;28;20109;-74
2024/02/12 00:22:55;;;;;;;0.32;0.30;;;6.80;81.30;;;;;;4975027;28;20365;-73
2024/02/12 00:25:21;;;;;;;2.10;0.40;;;6.80;80.50;;;;;;4975851;28;20034;-73
2024/02/12 00:27:48;;;;;;;1.35;0.57;;;6.70;81.00;;;;;;4958458;28;20380;-74
2024/02/12 00:30:15;;;;;;;0.50;0.22;;;6.70;81.80;;;;;;4975910;28;20160;-74
2024/02/12 00:32:43;;;;;;;0.47;0.20;;;6.60;82.50;;;;;;4976011;28;20037;-74
2024/02/12 00:35:10;;;;;;;1.77;0.40;;;6.60;82.80;;;;;;4975753;28;20023;-76
2024/02/12 00:37:36;;;;;;;1.00;0.40;;;6.50;83.60;;;;;;4975806;28;20019;-73
2024/02/12 00:40:09;;;;;;;0.43;0.40;;;6.50;83.70;;;;;;4975733;28;20035;-75
2024/02/12 00:42:35;;;;;;;0.95;0.30;;;6.50;83.70;;;;;;4975989;28;20352;-76
2024/02/12 00:45:03;;;;;;;0.70;0.30;;;6.50;83.50;;;;;;4958260;28;20031;-73
2024/02/12 00:47:29;;;;;;;3.10;0.57;;;6.50;83.40;;;;;;4975562;28;20034;-73
2024/02/12 00:49:54;;;;;;;1.35;0.40;;;6.40;82.80;;;;;;4975611;28;20031;-74
2024/02/12 00:52:23;;;;;;;2.28;0.52;;;6.50;82.50;;;;;;4974766;28;20031;-72
2024/02/12 00:54:51;;;;;;;0.25;0.25;;;6.50;82.10;;;;;;4975434;28;20094;-72
2024/02/12 00:57:17;;;;;;;1.33;0.55;;;6.50;81.40;;;;;;4981880;28;20034;-73
2024/02/12 00:59:43;;;;;;;1.75;0.43;;;6.60;80.80;;;;;;4958295;28;20022;-73
2024/02/12 01:02:11;;;;;;;1.42;0.40;;;6.60;80.40;;;;;;4958214;28;20127;-73
2024/02/12 01:04:37;;;;;;;1.35;0.30;;;6.60;79.70;;;;;;4958000;28;20484;-74
2024/02/12 01:07:03;;;;;;;0.45;0.20;;;6.70;79.50;;;;;;4975164;28;20038;-74
2024/02/12 01:09:29;;;;;;;1.80;0.35;;;6.70;79.20;;;;;;4957973;28;20133;-73
2024/02/12 01:11:55;;;;;;;0.90;0.20;;;6.70;79.10;;;;;;4975080;28;20535;-73
2024/02/12 01:14:21;;;;;;;1.00;0.10;;;6.70;79.30;;;;;;4975218;28;20170;-74
2024/02/12 01:16:47;;;;;;;0.47;0.20;;;6.70;78.80;;;;;;4975180;28;20078;-73
2024/02/12 01:19:12;;;;;;;0.30;0.10;;;6.70;79.20;;;;;;4975236;28;20034;-72
2024/02/12 01:21:39;;;;;;;0.93;0.10;;;6.70;78.80;;;;;;4975004;28;20023;-72
2024/02/12 01:24:05;;;;;;;0.10;0.10;;;6.70;78.80;;;;;;4974889;28;20074;-73
2024/02/12 01:26:37;;;;;;;0.73;0.30;;;6.70;78.70;;;;;;4974812;28;20026;-72
2024/02/12 01:29:06;;;;;;;0.20;0.10;;;6.70;79.10;;;;;;4974707;28;20487;-72
2024/02/12 01:31:31;;;;;;;0.57;0.30;;;6.70;79.40;;;;;;4974572;28;20027;-73
2024/02/12 01:33:57;;;;;;;1.90;0.30;;;6.70;79.70;;;;;;4974593;28;20357;-72
2024/02/12 01:36:24;;;;;;;1.63;0.20;;;6.70;79.90;;;;;;4974602;28;20018;-73
2024/02/12 01:38:49;;;;;;;0.20;0.20;;;6.70;79.40;;;;;;4974584;28;20046;-73
2024/02/12 01:41:17;;;;;;;0.57;0.30;;;6.70;79.50;;;;;;4974580;28;20023;-73
2024/02/12 01:43:43;;;;;;;1.98;0.30;;;6.70;79.40;;;;;;4974361;28;20113;-73
2024/02/12 01:46:09;;;;;;;0.20;0.20;;;6.60;79.40;;;;;;4974407;28;20026;-73
2024/02/12 01:48:36;;;;;;;0.30;0.10;;;6.60;79.20;;;;;;4974665;28;20059;-72
2024/02/12 01:51:06;;;;;;;1.63;0.20;;;6.60;78.40;;;;;;4974330;28;20045;-73
2024/02/12 01:53:39;;;;;;;2.35;0.28;;;6.50;78.60;;;;;;4956957;28;20034;-74
2024/02/12 01:56:08;;;;;;;0.25;0.25;;;6.50;78.80;;;;;;4974164;28;20421;-73
2024/02/12 01:58:37;;;;;;;0.55;0.13;;;6.50;78.70;;;;;;4974349;28;20027;-73
2024/02/12 02:01:03;;;;;;;0.20;0.13;;;6.50;78.40;;;;;;4974159;28;20054;-74
2024/02/12 02:03:30;;;;;;;0.20;0.20;;;6.50;78.30;;;;;;4974240;28;20026;-73
2024/02/12 02:05:56;;;;;;;0.65;0.20;;;6.50;78.50;;;;;;4957145;28;20026;-74
2024/02/12 02:08:36;;;;;;;0.50;0.20;;;6.50;78.50;;;;;;4973994;28;20125;-73
2024/02/12 02:11:06;;;;;;;1.02;0.20;;;6.50;78.50;;;;;;4974062;28;20472;-73
2024/02/12 02:13:38;;;;;;;1.08;0.30;;;6.50;78.60;;;;;;4974168;28;20165;-72
2024/02/12 02:16:04;;;;;;;0.30;0.20;;;6.50;79.10;;;;;;4973891;28;20043;-72
2024/02/12 02:18:31;;;;;;;2.00;0.47;;;6.40;78.80;;;;;;4973884;28;20023;-72
2024/02/12 02:20:57;;;;;;;0.47;0.20;;;6.40;78.30;;;;;;4974178;28;20023;-73
2024/02/12 02:23:23;;;;;;;0.82;0.20;;;6.40;78.10;;;;;;4974031;28;20027;-72
2024/02/12 02:25:49;;;;;;;0.82;0.52;;;6.50;77.90;;;;;;4973806;28;20055;-72
2024/02/12 02:28:18;;;;;;;0.40;0.20;;;6.40;77.80;;;;;;4973745;28;20030;-72
2024/02/12 02:30:43;;;;;;;0.22;0.10;;;6.40;77.10;;;;;;4974115;28;20059;-73
2024/02/12 02:33:09;;;;;;;0.35;0.17;;;6.50;77.00;;;;;;4956611;28;20076;-72
2024/02/12 02:35:36;;;;;;;0.30;0.20;;;6.50;77.30;;;;;;4973760;28;20034;-73
2024/02/12 02:38:02;;;;;;;0.63;0.32;;;6.50;77.40;;;;;;4973985;28;20349;-72
2024/02/12 02:40:28;;;;;;;1.17;0.28;;;6.50;77.30;;;;;;4973911;28;20027;-72
2024/02/12 02:42:53;;;;;;;0.43;0.30;;;6.50;77.30;;;;;;4973880;28;20041;-73
2024/02/12 02:45:19;;;;;;;0.40;0.25;;;6.50;77.40;;;;;;4956636;28;20019;-73
2024/02/12 02:47:44;;;;;;;1.85;0.20;;;6.50;77.40;;;;;;4974186;28;20027;-72
2024/02/12 02:50:10;;;;;;;0.75;0.40;;;6.50;77.40;;;;;;4973838;28;20483;-73
2024/02/12 02:52:39;;;;;;;0.38;0.20;;;6.50;77.40;;;;;;4973685;28;20102;-73
2024/02/12 02:55:06;;;;;;;0.63;0.20;;;6.50;77.30;;;;;;4973866;28;20027;-72
2024/02/12 02:57:33;;;;;;;1.40;0.15;;;6.60;76.90;;;;;;4973772;28;20082;-72
2024/02/12 02:59:59;;;;;;;1.60;0.20;;;6.50;76.50;;;;;;4973748;28;20034;-72
2024/02/12 03:02:25;;;;;;;1.70;0.32;;;6.50;76.70;;;;;;4956532;28;20379;-72
2024/02/12 03:04:50;;;;;;;0.70;0.20;;;6.60;76.60;;;;;;4973808;28;20114;-72
2024/02/12 03:07:17;;;;;;;0.20;0.20;;;6.60;76.70;;;;;;4956286;28;20114;-73
2024/02/12 03:09:42;;;;;;;1.75;0.20;;;6.60;76.50;;;;;;4973558;28;20027;-73
2024/02/12 03:12:08;;;;;;;1.20;0.60;;;6.60;76.20;;;;;;4973557;28;20026;-72
2024/02/12 03:14:35;;;;;;;0.20;0.20;;;6.60;76.20;;;;;;4973601;28;20026;-72
2024/02/12 03:17:01;;;;;;;0.82;0.20;;;6.50;76.60;;;;;;4958594;28;20499;-72
2024/02/12 03:19:26;;;;;;;2.83;0.50;;;6.60;76.30;;;;;;4977058;28;20037;-72
2024/02/12 03:21:52;;;;;;;0.75;0.30;;;6.60;76.40;;;;;;4946291;29;20031;-71
2024/02/12 03:24:21;;;;;;;0.50;0.30;;;6.50;76.70;;;;;;4940345;29;20031;-73
2024/02/12 03:26:47;;;;;;;0.47;0.20;;;6.50;76.90;;;;;;4940345;29;20042;-73
2024/02/12 03:29:14;;;;;;;1.30;0.40;;;6.50;76.60;;;;;;4957599;29;20368;-71
2024/02/12 03:31:40;;;;;;;1.00;0.50;;;6.50;76.30;;;;;;4957554;28;20058;-72
2024/02/12 03:34:06;;;;;;;1.52;0.60;;;6.50;75.90;;;;;;4957482;28;20037;-72
2024/02/12 03:36:31;;;;;;;0.30;0.22;;;6.50;75.70;;;;;;4957458;29;20031;-72
2024/02/12 03:38:58;;;;;;;1.30;0.50;;;6.60;75.80;;;;;;4957394;29;20110;-72
2024/02/12 03:41:24;;;;;;;1.65;0.55;;;6.60;75.20;;;;;;4940444;29;20082;-72
2024/02/12 03:43:53;;;;;;;1.60;0.52;;;6.50;74.90;;;;;;4957970;28;20027;-71
2024/02/12 03:46:28;;;;;;;2.67;0.47;;;6.50;74.90;;;;;;4957433;29;20027;-72
2024/02/12 03:59:53;;;;;;;2.50;0.80;;;6.70;74.30;;;;;;4957193;29;20396;-72
2024/02/12 04:02:22;;;;;;;1.65;0.80;;;6.70;74.40;;;;;;4957084;29;20024;-73
2024/02/12 04:04:49;;;;;;;2.67;0.95;;;6.70;74.30;;;;;;4957127;28;20034;-72
2024/02/12 04:07:15;;;;;;;1.08;0.68;;;6.80;74.60;;;;;;4956891;28;20512;-72
2024/02/12 04:09:42;;;;;;;1.13;0.50;;;6.80;74.70;;;;;;4939560;29;20129;-73
2024/02/12 04:12:11;;;;;;;1.88;0.45;;;6.80;74.80;;;;;;4956862;29;20027;-72
2024/02/12 04:14:38;;;;;;;1.02;0.73;;;6.80;75.00;;;;;;4956897;29;20166;-73
2024/02/12 04:17:05;;;;;;;1.50;0.60;;;6.80;75.10;;;;;;4975528;28;20109;-73
2024/02/12 04:19:32;;;;;;;1.00;0.60;;;6.80;74.80;;;;;;4976266;28;20035;-73
2024/02/12 04:22:01;;;;;;;2.08;0.68;;;6.90;74.90;;;;;;4976065;28;20034;-74
2024/02/12 04:24:34;;;;;;;3.40;0.95;;;6.90;75.00;;;;;;4976043;28;20034;-73
2024/02/12 04:26:59;;;;;;;0.95;0.68;;;6.90;74.60;;;;;;4975364;28;20023;-72
2024/02/12 04:29:26;;;;;;;1.70;0.80;;;6.90;74.80;;;;;;4958510;28;20041;-72
2024/02/12 04:31:52;;;;;;;1.63;0.93;;;6.90;74.90;;;;;;4975872;28;20022;-73
2024/02/12 04:34:18;;;;;;;1.42;0.90;;;6.80;75.10;;;;;;4976011;28;20124;-73
2024/02/12 04:36:44;;;;;;;3.20;0.60;;;6.80;75.20;;;;;;4976407;28;20019;-72
2024/02/12 04:39:16;;;;;;;1.48;0.70;;;6.90;75.10;;;;;;4975881;28;20357;-72
2024/02/12 04:41:44;;;;;;;0.95;0.60;;;6.80;75.00;;;;;;4975722;28;20046;-73
2024/02/12 04:44:09;;;;;;;1.52;0.57;;;6.80;75.20;;;;;;4975627;28;20050;-73
2024/02/12 04:46:38;;;;;;;1.40;0.73;;;6.80;75.20;;;;;;4975849;28;20023;-73
2024/02/12 04:49:04;;;;;;;1.30;0.80;;;6.70;75.10;;;;;;4981202;28;20115;-73
2024/02/12 04:51:37;;;;;;;0.90;0.70;;;6.70;74.50;;;;;;4961456;28;20023;-74
2024/02/12 04:54:03;;;;;;;2.13;0.98;;;6.70;74.90;;;;;;4975467;28;20137;-73
2024/02/12 04:56:30;;;;;;;1.42;0.85;;;6.60;74.80;;;;;;4975342;28;20449;-73
2024/02/12 04:58:59;;;;;;;1.27;0.70;;;6.60;75.20;;;;;;4957959;28;20030;-72
2024/02/12 05:01:27;;;;;;;3.72;1.02;;;6.50;75.40;;;;;;4977706;28;20027;-74
2024/02/12 05:03:58;;;;;;;4.63;1.23;;;6.50;75.50;;;;;;4977442;28;20014;-72
2024/02/12 05:06:24;;;;;;;2.38;0.88;;;6.40;75.50;;;;;;4983692;28;20033;-72
2024/02/12 05:08:51;;;;;;;1.65;0.90;;;6.40;76.00;;;;;;4982447;28;20035;-72
2024/02/12 05:11:17;;;;;;;1.10;0.80;;;6.30;76.20;;;;;;4957634;28;20110;-75
2024/02/12 05:13:45;;;;;;;1.38;0.80;;;6.40;76.20;;;;;;4957890;28;20106;-73
2024/02/12 05:16:13;;;;;;;0.82;0.70;;;6.40;76.20;;;;;;4957461;28;20047;-73
2024/02/12 05:24:08;;;;;;;3.40;1.00;;;6.50;76.30;;;;;;4975136;28;20094;-75
2024/02/12 05:26:33;;;;;;;5.43;1.70;;;6.50;76.30;;;;;;4957601;28;20019;-75
2024/02/12 05:28:59;;;;;;;1.30;1.10;;;6.50;76.40;;;;;;4957469;28;20038;-75
2024/02/12 05:31:25;;;;;;;2.33;1.25;;;6.50;76.50;;;;;;4957225;28;20042;-77
2024/02/12 05:33:51;;;;;;;2.35;1.00;;;6.50;76.60;;;;;;4957819;28;20023;-76
2024/02/12 05:36:20;;;;;;;1.25;0.75;;;6.50;76.80;;;;;;4957568;28;20034;-77
2024/02/12 05:38:46;;;;;;;2.30;1.05;;;6.50;76.80;;;;;;4957223;28;20027;-75
2024/02/12 05:41:15;;;;;;;3.38;1.15;;;6.50;77.10;;;;;;4974420;28;20031;-76
2024/02/12 05:43:41;;;;;;;1.90;1.23;;;6.50;77.40;;;;;;4957460;28;20038;-77
2024/02/12 05:46:07;;;;;;;2.05;1.50;;;6.40;77.80;;;;;;4957110;28;20029;-75
2024/02/12 05:48:34;;;;;;;2.17;1.35;;;6.40;78.10;;;;;;4956871;28;20472;-75
2024/02/12 05:50:59;;;;;;;1.65;1.00;;;6.40;78.20;;;;;;4957364;28;20138;-74
2024/02/12 05:53:28;;;;;;;1.90;0.80;;;6.40;78.40;;;;;;4957284;28;20050;-75
2024/02/12 05:55:55;;;;;;;4.68;1.35;;;6.40;78.50;;;;;;4973358;28;20049;-75
2024/02/12 05:58:23;;;;;;;1.77;0.93;;;6.30;78.50;;;;;;4973031;28;20387;-75
2024/02/12 06:00:49;;;;;;;2.13;1.08;;;6.30;78.70;;;;;;4974361;28;20023;-75
2024/02/12 06:03:15;;;;;;;2.03;0.98;;;6.30;78.90;;;;;;4956603;28;20022;-75
2024/02/12 06:05:40;;;;;;;1.67;1.13;;;6.30;78.90;;;;;;4956790;28;20428;-75
2024/02/12 06:08:07;;;;;;;0.98;0.80;;;6.30;78.80;;;;;;4957004;28;20035;-75
2024/02/12 06:10:34;;;;;;;1.98;1.30;;;6.30;78.90;;;;;;4974214;28;20030;-74
2024/02/12 06:12:59;;;;;;;2.13;1.45;;;6.20;78.80;;;;;;4957000;28;20073;-75
2024/02/12 06:15:25;;;;;;;3.58;1.30;;;6.20;78.80;;;;;;4973377;28;20058;-75
2024/02/12 06:17:52;;;;;;;1.92;1.45;;;6.20;78.90;;;;;;4956413;28;20400;-75
2024/02/12 06:20:17;;;;;;;3.33;1.52;;;6.30;79.10;;;;;;4956243;28;20019;-75
2024/02/12 06:22:44;;;;;;;1.77;1.42;;;6.30;79.00;;;;;;4973157;28;20030;-76
2024/02/12 06:25:13;;;;;;;1.92;1.48;;;6.30;78.90;;;;;;4973590;28;20059;-76
2024/02/12 06:27:39;;;;;;;6.70;1.95;;;6.30;79.00;;;;;;4956146;28;20030;-76
2024/02/12 06:30:05;;;;;;;5.05;1.73;;;6.40;80.90;;;;;;4956269;28;20373;-78
2024/02/12 06:32:32;;;;;;;2.92;1.20;;;6.60;85.10;;;;;;4955567;28;20495;-81
2024/02/12 06:35:20;;;;;;;5.28;2.00;;;6.80;83.20;;;;;;4970820;28;20071;-82
2024/02/12 06:37:48;;;;;;;11.30;5.47;;;7.30;79.20;;;;;;4970175;28;20031;-82
2024/02/12 06:40:14;;;;;;;9.07;5.40;;;7.40;76.40;;;;;;4973511;28;20473;-79
2024/02/12 06:42:42;;;;;;;8.52;5.50;;;7.50;75.70;;;;;;4956312;28;20131;-80
2024/02/12 06:45:11;;;;;;;7.47;4.53;;;7.70;75.40;;;;;;4940372;28;20026;-81
2024/02/12 06:47:36;;;;;;;5.90;3.65;;;7.80;74.20;;;;;;4956188;28;20061;-80
2024/02/12 06:50:05;;;;;;;3.83;3.00;;;8.00;73.70;;;;;;4956026;28;20066;-80
2024/02/12 06:52:31;;;;;;;4.78;2.60;;;8.10;73.00;;;;;;4959196;28;20023;-75
2024/02/12 06:54:57;;;;;;;2.60;2.13;;;8.10;71.40;;;;;;4977979;28;20074;-75
2024/02/12 06:57:24;;;;;;;3.80;2.35;;;7.90;71.70;;;;;;4976261;28;20109;-75
2024/02/12 06:59:49;;;;;;;3.47;2.10;;;7.70;72.20;;;;;;4959040;28;20058;-74
2024/02/12 07:02:15;;;;;;;3.92;2.22;;;7.50;73.60;;;;;;4976209;28;20050;-75
2024/02/12 07:04:42;;;;;;;2.90;1.83;;;7.40;73.20;;;;;;4976008;28;20037;-75
2024/02/12 07:07:07;;;;;;;4.40;2.22;;;7.30;72.70;;;;;;4958894;28;20121;-75
2024/02/12 07:09:35;;;;;;;4.30;2.75;;;7.20;73.00;;;;;;4975926;28;20122;-73
2024/02/12 07:12:00;;;;;;;4.53;2.80;;;7.20;73.30;;;;;;4958860;28;20206;-75
2024/02/12 07:14:27;;;;;;;5.25;2.80;;;7.30;73.60;;;;;;4975937;28;20034;-73
2024/02/12 07:16:53;;;;;;;4.03;2.40;;;7.30;73.70;;;;;;4922850;28;1074580;-77
2024/02/12 07:19:19;;;;;;;5.35;2.50;;;7.30;73.60;;;;;;4977035;28;20105;-74
2024/02/12 07:21:45;;;;;;;5.63;2.90;;;7.40;72.60;;;;;;4976995;28;20039;-74
2024/02/12 07:24:10;;;;;;;5.10;3.40;;;7.40;72.50;;;;;;4977109;28;20030;-73
2024/02/12 07:26:36;;;;;;;5.07;3.50;;;7.50;72.80;;;;;;4977005;28;20050;-74
2024/02/12 07:29:01;;;;;;;3.95;2.80;;;7.50;73.20;;;;;;4976822;28;20121;-75
2024/02/12 07:31:27;;;;;;;3.10;2.00;;;7.60;73.30;;;;;;4976674;28;20058;-75
2024/02/12 07:33:53;;;;;;;3.25;2.10;;;7.60;73.10;;;;;;4959677;28;20495;-73
2024/02/12 07:36:18;;;;;;;4.45;1.95;;;7.70;73.00;;;;;;4976954;28;20023;-75
2024/02/12 07:38:44;;;;;;;2.58;1.67;;;7.70;72.80;;;;;;4976653;28;20081;-74
2024/02/12 07:41:13;;;;;;;3.83;2.05;;;7.70;72.80;;;;;;4976481;28;20026;-73
2024/02/12 07:43:39;;;;;;;2.63;1.98;;;7.70;72.60;;;;;;4976865;28;20030;-73
2024/02/12 07:46:04;;;;;;;4.00;1.60;;;7.70;72.50;;;;;;4976627;28;20031;-73
2024/02/12 07:48:30;;;;;;;3.08;2.08;;;7.70;72.60;;;;;;4976471;28;20030;-73
2024/02/12 07:50:56;;;;;;;5.43;2.00;;;7.60;72.50;;;;;;4976692;28;20468;-74
2024/02/12 07:53:26;;;;;;;3.08;2.40;;;7.70;72.70;;;;;;4976878;28;20483;-74
2024/02/12 07:55:52;;;;;;;3.83;2.28;;;7.60;72.60;;;;;;4959303;28;20027;-73
2024/02/12 07:58:21;;;;;;;2.20;1.70;;;7.50;72.30;;;;;;4976582;28;20031;-73
2024/02/12 08:00:48;;;;;;;4.50;1.88;;;7.50;71.80;;;;;;4976391;28;20030;-73
2024/02/12 08:03:18;;;;;;;2.15;1.42;;;7.40;71.80;;;;;;4976312;28;20035;-73
2024/02/12 08:05:45;;;;;;;3.25;1.90;;;7.50;71.50;;;;;;4976102;28;20506;-72
2024/02/12 08:08:11;;;;;;;6.13;3.40;;;7.50;71.20;;;;;;4976115;28;20027;-71
2024/02/12 08:10:37;;;;;;;2.53;1.58;;;7.50;71.60;;;;;;4976181;28;20644;-73
2024/02/12 08:13:04;;;;;;;4.68;1.85;;;7.50;71.30;;;;;;4976127;28;20117;-73
2024/02/12 08:15:30;;;;;;;4.80;1.88;;;7.50;70.50;;;;;;4976373;28;20128;-72
2024/02/12 08:17:55;;;;;;;1.40;0.90;;;7.40;70.70;;;;;;4975937;28;20030;-72
2024/02/12 08:20:21;;;;;;;2.40;1.33;;;7.30;71.20;;;;;;4976018;28;20030;-73
2024/02/12 08:22:46;;;;;;;3.25;1.40;;;7.20;71.40;;;;;;4975775;28;20482;-73
2024/02/12 08:25:12;;;;;;;3.35;1.38;;;7.20;71.60;;;;;;4975718;28;20030;-72
2024/02/12 08:27:37;;;;;;;1.73;1.05;;;7.20;71.20;;;;;;4975695;28;20030;-74
2024/02/12 08:30:06;;;;;;;2.58;1.08;;;7.20;71.70;;;;;;4975775;28;20486;-73
2024/02/12 08:32:32;;;;;;;2.67;1.25;;;7.20;71.80;;;;;;4975939;28;20096;-74
2024/02/12 08:34:58;;;;;;;2.75;1.38;;;7.20;71.80;;;;;;4975664;28;20039;-73
2024/02/12 08:37:24;;;;;;;2.13;1.25;;;7.30;71.80;;;;;;4958369;28;20404;-72
2024/02/12 08:39:49;;;;;;;2.40;1.52;;;7.30;72.60;;;;;;4964376;28;20083;-73
2024/02/12 08:42:15;;;;;;;1.95;1.20;;;7.40;72.20;;;;;;4938999;29;20031;-73
2024/02/12 08:44:43;;;;;;;1.95;0.90;;;7.50;72.80;;;;;;4956285;29;20457;-73
2024/02/12 08:47:09;;;;;;;3.45;1.17;;;7.50;71.60;;;;;;4957036;29;20114;-73
2024/02/12 08:49:34;;;;;;;1.98;1.45;;;7.50;71.70;;;;;;4956408;29;20113;-73
2024/02/12 08:52:00;;;;;;;2.95;1.85;;;7.40;72.80;;;;;;4955967;29;20019;-72
2024/02/12 08:54:27;;;;;;;2.50;1.20;;;7.30;74.80;;;;;;4955970;29;20078;-71
2024/02/12 08:56:53;;;;;;;3.38;1.30;;;7.00;76.00;;;;;;4955985;29;20023;-71
2024/02/12 08:59:23;;;;;;;4.68;2.00;;;7.00;76.40;;;;;;4956077;29;20024;-72
2024/02/12 09:01:49;;;;;;;3.58;2.00;;;7.10;76.50;;;;;;4955946;29;20067;-72
2024/02/12 09:04:15;;;;;;;5.43;2.20;;;7.10;76.90;;;;;;4956025;29;20070;-72
2024/02/12 09:06:41;;;;;;;5.78;3.00;;;7.10;76.50;;;;;;4955702;29;20038;-72
2024/02/12 09:09:06;;;;;;;5.32;2.97;;;7.20;76.70;;;;;;4955539;29;20039;-71
2024/02/12 09:11:32;;;;;;;6.43;3.10;;;7.20;76.80;;;;;;4960098;29;20023;-72
2024/02/12 09:13:59;;;;;;;5.82;2.95;;;7.30;77.20;;;;;;4938450;29;20027;-72
2024/02/12 09:16:25;;;;;;;3.67;2.25;;;7.30;76.80;;;;;;4955668;29;20130;-72
2024/02/12 09:18:51;;;;;;;5.32;2.38;;;7.40;76.30;;;;;;4938718;29;20055;-72
2024/02/12 09:21:17;;;;;;;4.25;2.20;;;7.40;76.20;;;;;;4955517;29;20043;-72
2024/02/12 09:23:43;;;;;;;3.25;1.95;;;7.50;75.90;;;;;;4955359;29;20102;-72
2024/02/12 09:26:08;;;;;;;5.57;2.20;;;7.50;76.00;;;;;;4955423;29;20106;-72
2024/02/12 09:28:35;;;;;;;3.70;1.67;;;7.70;75.20;;;;;;4955405;29;20071;-72
2024/02/12 09:31:00;;;;;;;3.28;1.98;;;7.70;74.60;;;;;;4955554;29;20027;-73
2024/02/12 09:33:29;;;;;;;2.95;1.42;;;7.80;74.30;;;;;;4955477;29;20019;-73
2024/02/12 09:35:54;;;;;;;2.90;1.80;;;7.80;72.50;;;;;;4955895;29;20094;-73
2024/02/12 09:38:21;;;;;;;3.67;1.92;;;7.90;72.70;;;;;;4964548;28;20475;-73
2024/02/12 09:40:48;;;;;;;3.00;1.30;;;7.90;72.70;;;;;;4974513;28;20023;-73
2024/02/12 09:43:14;;;;;;;5.60;3.50;;;7.80;73.00;;;;;;4974460;28;20034;-73
2024/02/12 09:45:44;;;;;;;2.40;1.85;;;7.80;72.30;;;;;;4974341;28;20038;-73
2024/02/12 09:48:11;;;;;;;14.82;9.80;;;7.70;72.20;;;;;;4974667;28;20026;-73
2024/02/12 09:50:38;;;;;;;2.67;1.75;;;7.60;72.90;;;;;;4974509;28;20392;-73
2024/02/12 09:53:09;;;;;;;2.35;1.15;;;7.60;72.80;;;;;;4956731;28;20034;-72
2024/02/12 09:55:35;;;;;;;2.15;1.42;;;7.50;73.60;;;;;;4974412;28;20031;-74
2024/02/12 09:58:01;;;;;;;1.95;0.85;;;7.40;75.30;;;;;;4974213;28;20058;-73
2024/02/12 10:00:27;;;;;;;2.22;1.20;;;7.20;74.50;;;;;;4974582;28;20125;-72
2024/02/12 10:02:53;;;;;;;3.05;1.60;;;7.00;76.60;;;;;;4974579;28;20105;-72
2024/02/12 10:05:23;;;;;;;3.55;1.40;;;7.00;76.80;;;;;;4974188;28;20091;-73
2024/02/12 10:07:50;;;;;;;4.57;1.90;;;6.80;77.40;;;;;;4974112;28;20392;-71
2024/02/12 10:10:17;;;;;;;5.07;3.13;;;6.80;78.20;;;;;;4973887;28;20043;-73
2024/02/12 10:12:52;;;;;;;6.63;3.60;;;6.80;78.50;;;;;;4974094;28;20037;-74
2024/02/12 10:15:19;;;;;;;5.55;2.83;;;6.80;79.00;;;;;;4956774;28;20113;-73
2024/02/12 10:17:46;;;;;;;5.20;3.05;;;6.80;79.10;;;;;;4973936;28;20035;-73
2024/02/12 10:20:12;;;;;;;3.05;1.98;;;6.80;79.80;;;;;;4973939;28;20026;-73
2024/02/12 10:22:39;;;;;;;4.65;1.90;;;6.90;79.60;;;;;;4957143;28;20106;-74
2024/02/12 10:25:05;;;;;;;2.45;1.77;;;7.00;78.80;;;;;;4956053;28;20503;-73
2024/02/12 10:27:30;;;;;;;2.42;1.50;;;6.90;78.90;;;;;;4973777;28;20033;-73
2024/02/12 10:30:04;;;;;;;1.55;1.15;;;6.80;77.10;;;;;;4956723;28;20035;-74
2024/02/12 10:32:32;;;;;;;2.03;1.00;;;6.70;77.80;;;;;;4956417;28;20030;-74
2024/02/12 10:35:01;;;;;;;2.35;1.17;;;6.70;77.40;;;;;;4974107;28;20038;-74
2024/02/12 10:37:27;;;;;;;2.22;1.30;;;6.60;77.40;;;;;;4973402;28;20019;-73
2024/02/12 10:39:55;;;;;;;1.05;0.93;;;6.60;78.50;;;;;;4973743;28;20383;-74
2024/02/12 10:42:45;;;;;;;3.42;1.42;;;6.60;79.10;;;;;;4973625;28;20035;-73
2024/02/12 10:45:11;;;;;;;1.92;1.17;;;6.60;79.10;;;;;;4966560;28;20039;-74
2024/02/12 10:47:37;;;;;;;1.20;0.90;;;6.60;79.80;;;;;;4973605;28;20027;-73
2024/02/12 10:50:04;;;;;;;1.60;1.08;;;6.60;78.60;;;;;;4956135;28;20428;-74
2024/02/12 10:52:30;;;;;;;2.45;1.02;;;6.70;78.30;;;;;;4973577;28;20029;-74
2024/02/12 10:54:56;;;;;;;2.00;1.20;;;6.80;78.70;;;;;;4973380;28;20034;-74
2024/02/12 10:57:23;;;;;;;2.67;0.85;;;7.00;78.40;;;;;;4957628;28;20038;-75
2024/02/12 11:00:05;;;;;;;2.90;1.70;;;7.10;78.20;;;;;;4955771;28;20046;-74
2024/02/12 11:02:43;;;;;;;6.75;2.40;;;7.30;79.20;;;;;;4973659;28;20023;-74
2024/02/12 11:05:13;;;;;;;2.03;1.20;;;7.30;78.50;;;;;;4973600;28;20037;-74
2024/02/12 11:07:39;;;;;;;1.48;0.90;;;7.30;77.30;;;;;;4956002;28;20238;-72
2024/02/12 11:10:06;;;;;;;1.42;0.90;;;7.20;77.70;;;;;;4973540;28;20488;-73
2024/02/12 11:12:35;;;;;;;2.50;1.00;;;7.20;78.10;;;;;;4973572;28;20035;-74
2024/02/12 11:15:10;;;;;;;0.60;0.60;;;7.20;77.60;;;;;;4973254;28;20026;-74
2024/02/12 11:17:36;;;;;;;0.40;0.40;;;7.30;77.20;;;;;;4972258;28;20027;-72
2024/02/12 11:20:05;;;;;;;1.00;0.60;;;7.20;76.60;;;;;;4956114;28;20037;-73
2024/02/12 11:22:31;;;;;;;0.95;0.60;;;7.30;77.10;;;;;;4973340;28;20026;-72
2024/02/12 11:25:03;;;;;;;1.05;0.50;;;7.40;76.90;;;;;;4955819;28;20400;-73
2024/02/12 11:27:51;;;;;;;0.75;0.70;;;7.40;76.60;;;;;;4973390;28;20046;-72
2024/02/12 11:30:17;;;;;;;1.17;0.82;;;7.50;76.40;;;;;;4973064;28;20408;-73
2024/02/12 11:32:45;;;;;;;1.15;0.90;;;7.70;76.30;;;;;;4956112;28;20027;-72
2024/02/12 11:35:15;;;;;;;1.58;1.10;;;7.80;76.10;;;;;;4973332;28;20035;-74
2024/02/12 11:37:56;;;;;;;1.80;1.00;;;7.90;76.00;;;;;;4975679;28;20031;-75
2024/02/12 11:40:22;;;;;;;2.22;0.88;;;8.10;74.10;;;;;;4976867;28;20031;-72
2024/02/12 11:42:52;;;;;;;1.10;0.90;;;8.20;73.40;;;;;;4976842;28;20023;-72
2024/02/12 11:45:18;;;;;;;2.05;0.80;;;8.30;73.40;;;;;;4976680;28;20506;-72
2024/02/12 11:47:47;;;;;;;0.93;0.88;;;8.60;73.90;;;;;;4976639;28;20022;-73
2024/02/12 11:50:19;;;;;;;1.50;1.10;;;8.90;73.60;;;;;;4976409;28;20031;-74
2024/02/12 11:52:45;;;;;;;1.25;0.80;;;9.10;71.70;;;;;;4976726;28;20027;-74
2024/02/12 11:55:11;;;;;;;1.38;0.73;;;9.20;69.30;;;;;;4976695;28;20018;-74
2024/02/12 11:57:38;;;;;;;1.77;0.75;;;9.30;68.70;;;;;;4976649;28;20030;-74
2024/02/12 12:00:06;;;;;;;1.58;0.75;;;9.70;67.00;;;;;;4976641;28;20023;-74
2024/02/12 12:02:32;;;;;;;2.50;0.70;;;9.80;64.80;;;;;;4976739;28;20456;-73
2024/02/12 12:05:00;;;;;;;0.85;0.50;;;10.10;64.50;;;;;;4976471;28;20030;-74
2024/02/12 12:07:29;;;;;;;1.73;0.50;;;10.40;63.90;;;;;;4976418;28;20051;-73
2024/02/12 12:10:04;;;;;;;2.10;0.68;;;10.40;61.10;;;;;;4959170;28;20471;-73
2024/02/12 12:12:30;;;;;;;3.50;0.68;;;10.20;62.30;;;;;;4976336;28;20038;-73
2024/02/12 12:15:03;;;;;;;2.92;0.60;;;10.00;63.70;;;;;;4976127;28;20029;-73
2024/02/12 12:17:30;;;;;;;0.93;0.70;;;9.80;64.10;;;;;;4976578;28;20031;-74
2024/02/12 12:19:58;;;;;;;1.33;0.60;;;9.60;64.20;;;;;;4976947;28;20069;-73
2024/02/12 12:22:24;;;;;;;2.20;0.82;;;9.30;64.60;;;;;;4976204;28;20102;-72
2024/02/12 12:24:49;;;;;;;1.58;1.17;;;9.20;65.80;;;;;;4976189;28;20035;-72
2024/02/12 12:27:25;;;;;;;2.13;1.00;;;9.00;66.10;;;;;;4975817;28;20018;-73
2024/02/12 12:29:56;;;;;;;2.75;0.85;;;8.90;66.00;;;;;;4975805;28;20035;-72
2024/02/12 12:32:22;;;;;;;2.88;1.02;;;8.70;67.40;;;;;;4976070;28;20122;-73
2024/02/12 12:34:47;;;;;;;1.63;0.88;;;8.50;69.40;;;;;;4975833;28;20162;-73
2024/02/12 12:37:14;;;;;;;2.42;1.05;;;8.50;70.10;;;;;;4975768;28;20035;-74
2024/02/12 12:39:40;;;;;;;1.48;0.75;;;8.50;69.80;;;;;;4975579;28;20027;-73
2024/02/12 12:42:12;;;;;;;2.90;0.77;;;8.50;67.70;;;;;;4975745;28;20022;-73
2024/02/12 12:44:38;;;;;;;2.22;0.60;;;8.50;67.40;;;;;;4974869;28;20065;-73
2024/02/12 12:47:05;;;;;;;1.83;0.60;;;8.60;67.30;;;;;;4957984;28;20026;-73
2024/02/12 12:49:32;;;;;;;3.88;1.77;;;8.80;66.20;;;;;;4974424;28;20030;-73
2024/02/12 12:51:58;;;;;;;2.05;0.90;;;9.10;64.40;;;;;;4974907;28;20019;-74
2024/02/12 12:54:25;;;;;;;1.52;1.00;;;9.30;64.40;;;;;;4975047;28;20035;-74
2024/02/12 12:56:51;;;;;;;1.83;1.05;;;9.50;62.70;;;;;;4975095;28;20476;-73
2024/02/12 12:59:17;;;;;;;2.03;1.20;;;9.60;62.40;;;;;;4958096;28;20151;-73
2024/02/12 13:01:42;;;;;;;4.35;1.13;;;9.60;63.00;;;;;;4957669;28;20039;-73
2024/02/12 13:04:11;;;;;;;2.53;0.90;;;9.40;63.40;;;;;;4958047;28;20034;-73
2024/02/12 13:06:38;;;;;;;1.65;0.80;;;9.50;63.00;;;;;;4957927;28;20029;-73
2024/02/12 13:09:10;;;;;;;3.58;1.15;;;9.60;62.50;;;;;;4974962;28;20035;-73
2024/02/12 13:11:36;;;;;;;2.15;0.95;;;9.60;61.50;;;;;;4957776;28;20058;-72
2024/02/12 13:14:07;;;;;;;3.55;1.33;;;9.60;61.20;;;;;;4975028;28;20023;-73